createdAt,value
2023-05-20T00:00:33.965Z,100018.69
2023-05-20T00:03:04.540Z,100017.91
2023-05-20T00:05:34.998Z,100018.47
2023-05-20T00:08:08.877Z,100008.41
2023-05-20T00:10:39.683Z,99998.53
2023-05-20T00:13:10.182Z,99995.66
2023-05-20T00:15:40.848Z,99999.56
2023-05-20T00:18:11.404Z,99999.97
2023-05-20T00:20:41.857Z,99992.38
2023-05-20T00:23:12.504Z,99981.47
2023-05-20T00:25:42.867Z,99980.22
2023-05-20T00:28:13.267Z,99976.09
2023-05-20T00:30:43.992Z,99981.88
2023-05-20T00:33:14.764Z,99981.66
2023-05-20T00:35:45.262Z,99981.66
2023-05-20T00:38:16.002Z,99977.34
2023-05-20T00:40:46.464Z,99967.47
2023-05-20T00:43:17.222Z,99957.00
2023-05-20T00:45:48.780Z,99958.22
2023-05-20T00:48:19.315Z,99944.63
2023-05-20T00:50:54.107Z,99932.06
2023-05-20T00:53:25.386Z,99917.25
2023-05-20T00:55:55.871Z,99921.34
2023-05-20T00:58:26.298Z,99915.38
2023-05-20T01:00:57.256Z,99931.00
2023-05-20T01:03:28.897Z,99932.28
2023-05-20T01:05:59.411Z,99914.53
2023-05-20T01:08:30.312Z,99921.06
2023-05-20T01:11:13.393Z,99937.59
2023-05-20T01:13:48.880Z,99949.53
2023-05-20T01:16:25.061Z,99951.72
2023-05-20T01:18:58.954Z,99960.28
2023-05-20T01:21:33.847Z,99967.75
2023-05-20T01:24:07.330Z,99956.31
2023-05-20T01:26:39.914Z,99958.53
2023-05-20T01:29:10.398Z,99974.25
2023-05-20T01:31:41.708Z,99983.25
2023-05-20T01:34:15.164Z,99990.63
2023-05-20T01:36:48.606Z,99997.47
2023-05-20T01:39:20.346Z,99995.84
2023-05-20T01:41:52.026Z,99994.81
2023-05-20T01:44:23.114Z,99996.03
2023-05-20T01:46:54.114Z,100005.31
2023-05-20T01:49:24.507Z,100004.03
2023-05-20T01:51:55.000Z,99995.44
2023-05-20T01:54:26.034Z,100002.81
2023-05-20T01:56:56.509Z,100003.50
2023-05-20T01:59:27.089Z,100007.91
2023-05-20T02:01:57.624Z,100003.97
2023-05-20T02:04:28.877Z,100001.44
2023-05-20T02:06:59.291Z,100002.44
2023-05-20T02:09:30.417Z,100000.97
2023-05-20T02:12:01.051Z,99995.00
2023-05-20T02:14:50.788Z,99986.78
2023-05-20T02:17:22.642Z,99992.34
2023-05-20T02:19:53.181Z,99987.19
2023-05-20T02:22:23.634Z,99996.47
2023-05-20T02:24:54.499Z,99991.13
2023-05-20T02:27:24.884Z,99993.56
2023-05-20T02:29:55.407Z,99994.16
2023-05-20T02:32:29.663Z,99993.59
2023-05-20T02:35:00.193Z,99980.44
2023-05-20T02:37:31.387Z,99977.53
2023-05-20T02:40:02.043Z,99971.34
2023-05-20T02:42:32.804Z,99972.16
2023-05-20T02:45:04.127Z,99965.09
2023-05-20T02:47:34.615Z,99956.50
2023-05-20T02:50:08.614Z,99939.66
2023-05-20T02:52:41.489Z,99940.91
2023-05-20T02:55:12.458Z,99930.38
2023-05-20T02:57:42.727Z,99928.78
2023-05-20T03:00:14.832Z,99917.44
2023-05-20T03:02:46.117Z,99922.09
2023-05-20T03:05:16.769Z,99925.88
2023-05-20T03:07:48.024Z,99912.50
2023-05-20T03:10:18.775Z,99925.72
2023-05-20T03:12:49.168Z,99931.91
2023-05-20T03:15:19.664Z,99938.25
2023-05-20T03:17:50.068Z,99932.94
2023-05-20T03:20:38.545Z,99931.03
2023-05-20T03:23:10.642Z,99927.91
2023-05-20T03:25:42.514Z,99924.53
2023-05-20T03:28:13.430Z,99930.59
2023-05-20T03:30:44.071Z,99921.75
2023-05-20T03:33:14.876Z,99918.25
2023-05-20T03:35:45.334Z,99925.66
2023-05-20T03:38:17.071Z,99919.63
2023-05-20T03:40:47.692Z,99925.19
2023-05-20T03:43:18.376Z,99925.94
2023-05-20T03:45:48.678Z,99910.06
2023-05-20T03:48:19.122Z,99906.78
2023-05-20T03:50:49.689Z,99907.53
2023-05-20T03:53:21.779Z,99902.72
2023-05-20T03:56:10.516Z,99907.38
2023-05-20T03:58:44.835Z,99906.38
2023-05-20T04:01:17.560Z,99904.63
2023-05-20T04:03:47.648Z,99892.38
2023-05-20T04:06:18.234Z,99891.19
2023-05-20T04:09:06.688Z,99889.06
2023-05-20T04:11:37.446Z,99884.63
2023-05-20T04:14:08.405Z,99884.06
2023-05-20T04:16:39.296Z,99883.97
2023-05-20T04:19:10.447Z,99882.88
2023-05-20T04:21:41.267Z,99894.50
2023-05-20T04:24:11.935Z,99882.03
2023-05-20T04:26:42.526Z,99892.44
2023-05-20T04:29:14.478Z,99893.97
2023-05-20T04:31:47.218Z,99884.06
2023-05-20T04:34:21.130Z,99884.38
2023-05-20T04:36:53.605Z,99883.72
2023-05-20T04:39:24.373Z,99892.44
2023-05-20T04:41:59.183Z,99891.56
2023-05-20T04:44:31.489Z,99891.41
2023-05-20T04:47:02.285Z,99886.44
2023-05-20T04:49:32.678Z,99891.31
2023-05-20T04:52:03.129Z,99894.44
2023-05-20T04:54:52.692Z,99896.44
2023-05-20T04:57:23.173Z,99890.56
2023-05-20T05:00:13.948Z,99884.00
2023-05-20T05:02:44.779Z,99889.09
2023-05-20T05:05:15.263Z,99884.72
2023-05-20T05:07:45.800Z,99891.22
2023-05-20T05:10:17.441Z,99897.75
2023-05-20T05:12:47.912Z,99888.66
2023-05-20T05:15:18.940Z,99884.13
2023-05-20T05:17:50.415Z,99877.16
2023-05-20T05:20:21.449Z,99887.53
2023-05-20T05:22:52.375Z,99892.31
2023-05-20T05:25:23.123Z,99894.81
2023-05-20T05:27:53.599Z,99900.47
2023-05-20T05:30:25.929Z,99894.81
2023-05-20T05:32:56.615Z,99884.47
2023-05-20T05:35:27.490Z,99878.28
2023-05-20T05:37:57.934Z,99866.63
2023-05-20T05:40:29.174Z,99868.00
2023-05-20T05:42:59.780Z,99868.25
2023-05-20T05:45:30.527Z,99856.81
2023-05-20T05:48:01.792Z,99862.22
2023-05-20T05:50:33.137Z,99858.16
2023-05-20T05:53:04.219Z,99850.63
2023-05-20T05:55:35.628Z,99850.19
2023-05-20T05:58:06.506Z,99858.19
2023-05-20T06:00:37.216Z,99857.78
2023-05-20T06:03:07.952Z,99867.56
2023-05-20T06:05:40.422Z,99869.22
2023-05-20T06:08:10.908Z,99868.16
2023-05-20T06:10:41.540Z,99864.91
2023-05-20T06:13:12.039Z,99870.94
2023-05-20T06:15:43.016Z,99859.94
2023-05-20T06:18:14.404Z,99843.31
2023-05-20T06:20:45.172Z,99845.84
2023-05-20T06:23:15.570Z,99845.13
2023-05-20T06:26:01.260Z,99838.38
2023-05-20T06:28:33.039Z,99843.25
2023-05-20T06:31:03.588Z,99840.66
2023-05-20T06:33:52.133Z,99844.38
2023-05-20T06:36:23.568Z,99852.63
2023-05-20T06:38:54.195Z,99852.94
2023-05-20T06:41:24.751Z,99850.06
2023-05-20T06:43:55.368Z,99857.44
2023-05-20T06:47:00.677Z,99859.91
2023-05-20T06:49:31.470Z,99884.91
2023-05-20T06:52:03.382Z,99892.94
2023-05-20T06:54:35.730Z,99871.91
2023-05-20T06:57:06.666Z,99886.41
2023-05-20T06:59:38.217Z,99886.88
2023-05-20T07:02:10.487Z,99881.31
2023-05-20T07:04:41.407Z,99890.00
2023-05-20T07:07:11.846Z,99892.53
2023-05-20T07:09:42.697Z,99883.44
2023-05-20T07:12:13.458Z,99880.44
2023-05-20T07:14:44.570Z,99882.59
2023-05-20T07:17:15.558Z,99880.34
2023-05-20T07:19:48.023Z,99902.38
2023-05-20T07:22:18.840Z,99890.81
2023-05-20T07:25:04.831Z,99891.72
2023-05-20T07:27:35.451Z,99884.44
2023-05-20T07:30:07.010Z,99875.69
2023-05-20T07:32:38.854Z,99867.31
2023-05-20T07:35:09.804Z,99875.75
2023-05-20T07:37:40.525Z,99866.41
2023-05-20T07:40:12.366Z,99860.63
2023-05-20T07:42:42.835Z,99854.00
2023-05-20T07:45:13.517Z,99861.44
2023-05-20T07:47:43.990Z,99856.50
2023-05-20T07:50:15.444Z,99850.38
2023-05-20T07:52:55.952Z,99837.16
2023-05-20T07:55:30.188Z,99852.34
2023-05-20T07:58:01.246Z,99855.59
2023-05-20T08:00:31.792Z,99849.75
2023-05-20T08:03:06.611Z,99853.28
2023-05-20T08:05:58.813Z,99859.28
2023-05-20T08:08:32.060Z,99840.03
2023-05-20T08:11:09.278Z,99832.59
2023-05-20T08:13:41.372Z,99824.00
2023-05-20T08:16:12.587Z,99841.72
2023-05-20T08:18:43.206Z,99831.03
2023-05-20T08:21:15.596Z,99825.31
2023-05-20T08:23:46.106Z,99829.50
2023-05-20T08:26:16.580Z,99828.97
2023-05-20T08:28:46.998Z,99816.88
2023-05-20T08:31:20.120Z,99826.19
2023-05-20T08:33:50.714Z,99833.19
2023-05-20T08:36:21.461Z,99817.34
2023-05-20T08:38:52.810Z,99805.44
2023-05-20T08:41:24.259Z,99813.09
2023-05-20T08:43:56.572Z,99813.75
2023-05-20T08:46:28.781Z,99806.69
2023-05-20T08:49:00.903Z,99794.19
2023-05-20T08:51:34.750Z,99803.22
2023-05-20T08:54:05.570Z,99797.78
2023-05-20T08:56:36.057Z,99799.22
2023-05-20T08:59:06.964Z,99787.47
2023-05-20T09:01:44.640Z,99781.22
2023-05-20T09:04:15.271Z,99771.00
2023-05-20T09:06:49.072Z,99763.06
2023-05-20T09:09:19.513Z,99751.09
2023-05-20T09:11:49.788Z,99745.72
2023-05-20T09:14:20.179Z,99748.41
2023-05-20T09:16:51.156Z,99756.34
2023-05-20T09:19:26.449Z,99764.66
2023-05-20T09:21:57.721Z,99769.66
2023-05-20T09:24:28.740Z,99762.50
2023-05-20T09:27:00.214Z,99762.59
2023-05-20T09:29:30.665Z,99763.28
2023-05-20T09:32:05.080Z,99757.66
2023-05-20T09:34:35.547Z,99751.88
2023-05-20T09:37:07.551Z,99760.91
2023-05-20T09:40:01.145Z,99758.31
2023-05-20T09:43:00.816Z,99766.72
2023-05-20T09:45:31.718Z,99776.28
2023-05-20T09:48:04.454Z,99781.34
2023-05-20T09:50:35.410Z,99797.94
2023-05-20T09:53:06.970Z,99809.84
2023-05-20T09:55:38.229Z,99820.91
2023-05-20T09:58:10.120Z,99822.28
2023-05-20T10:00:40.558Z,99825.00
2023-05-20T10:03:11.122Z,99829.50
2023-05-20T10:05:49.242Z,99842.09
2023-05-20T10:08:50.275Z,99853.03
2023-05-20T10:11:38.696Z,99855.97
2023-05-20T10:14:35.196Z,99867.75
2023-05-20T10:17:17.799Z,99875.25
2023-05-20T10:19:48.372Z,99874.03
2023-05-20T10:22:30.638Z,99881.59
2023-05-20T10:25:02.251Z,99886.44
2023-05-20T10:27:33.027Z,99889.50
2023-05-20T10:30:03.325Z,99900.19
2023-05-20T10:32:36.162Z,99904.56
2023-05-20T10:35:11.558Z,99906.88
2023-05-20T10:37:47.497Z,99911.22
2023-05-20T10:40:36.410Z,99934.00
2023-05-20T10:43:31.383Z,99938.28
2023-05-20T10:46:03.236Z,99945.13
2023-05-20T10:48:36.096Z,99951.06
2023-05-20T10:51:06.607Z,99955.78
2023-05-20T10:53:47.228Z,99957.84
2023-05-20T10:56:23.139Z,99956.53
2023-05-20T10:58:55.636Z,99963.91
2023-05-20T11:01:28.731Z,99974.59
2023-05-20T11:04:02.427Z,99974.97
2023-05-20T11:06:33.215Z,99978.28
2023-05-20T11:09:11.640Z,99983.41
2023-05-20T11:11:43.222Z,99997.25
2023-05-20T11:14:17.960Z,99996.63
2023-05-20T11:16:50.074Z,100002.63
2023-05-20T11:19:21.294Z,100007.75
2023-05-20T11:21:52.981Z,100002.84
2023-05-20T11:24:29.109Z,100012.53
2023-05-20T11:26:59.809Z,100003.00
2023-05-20T11:29:33.659Z,100008.81
2023-05-20T11:32:04.360Z,100014.81
2023-05-20T11:34:39.451Z,100008.75
2023-05-20T11:39:48.971Z,100019.50
2023-05-20T11:42:38.591Z,100016.00
2023-05-20T11:45:15.304Z,100027.06
2023-05-20T11:47:45.922Z,100019.34
2023-05-20T11:50:25.182Z,100015.41
2023-05-20T11:53:01.537Z,100020.25
2023-05-20T11:55:34.016Z,100017.22
2023-05-20T11:58:05.918Z,100023.78
2023-05-20T12:00:46.800Z,100034.34
2023-05-20T12:03:22.170Z,100033.03
2023-05-20T12:05:53.253Z,100040.50
2023-05-20T12:08:24.332Z,100042.25
2023-05-20T12:10:54.736Z,100033.94
2023-05-20T12:13:43.451Z,100026.47
2023-05-20T12:16:14.080Z,100024.41
2023-05-20T12:18:44.572Z,100017.84
2023-05-20T12:21:14.980Z,100011.88
2023-05-20T12:23:45.379Z,100015.22
2023-05-20T12:26:15.664Z,100014.13
2023-05-20T12:28:46.171Z,100014.47
2023-05-20T12:31:16.594Z,100007.53
2023-05-20T12:33:47.240Z,99993.94
2023-05-20T12:36:18.122Z,99992.22
2023-05-20T12:38:48.655Z,99997.25
2023-05-20T12:41:18.994Z,100006.53
2023-05-20T12:43:49.465Z,99995.31
2023-05-20T12:46:40.770Z,99990.84
2023-05-20T12:49:11.234Z,99976.78
2023-05-20T12:51:41.633Z,99979.28
2023-05-20T12:54:12.094Z,99985.00
2023-05-20T12:56:42.670Z,100003.03
2023-05-20T12:59:13.165Z,100018.44
2023-05-20T13:01:43.695Z,100019.47
2023-05-20T13:04:14.147Z,100022.19
2023-05-20T13:06:45.063Z,100018.16
2023-05-20T13:09:15.453Z,100020.28
2023-05-20T13:11:46.647Z,100028.56
2023-05-20T13:14:17.547Z,100023.03
2023-05-20T13:16:48.179Z,100027.69
2023-05-20T13:19:18.751Z,100021.25
2023-05-20T13:21:49.711Z,100018.09
2023-05-20T13:24:20.410Z,100014.13
2023-05-20T13:26:51.074Z,100013.16
2023-05-20T13:29:21.501Z,100005.81
2023-05-20T13:32:09.980Z,100007.13
2023-05-20T13:34:40.503Z,100005.41
2023-05-20T13:37:11.004Z,100007.25
2023-05-20T13:39:41.549Z,100011.25
2023-05-20T13:42:11.870Z,100014.53
2023-05-20T13:44:42.335Z,100035.72
2023-05-20T13:47:13.323Z,100028.09
2023-05-20T13:49:43.965Z,100026.69
2023-05-20T13:52:14.891Z,100025.25
2023-05-20T13:54:48.194Z,100019.69
2023-05-20T13:57:18.978Z,100014.16
2023-05-20T13:59:49.363Z,100004.28
2023-05-20T14:02:20.073Z,99982.78
2023-05-20T14:04:50.548Z,99972.13
2023-05-20T14:07:21.008Z,99966.53
2023-05-20T14:09:51.443Z,99952.56
2023-05-20T14:12:39.681Z,99958.53
2023-05-20T14:15:10.642Z,99967.88
2023-05-20T14:17:41.051Z,99972.31
2023-05-20T14:20:12.196Z,99978.75
2023-05-20T14:22:42.686Z,99983.31
2023-05-20T14:25:13.105Z,99988.19
2023-05-20T14:27:43.878Z,99985.78
2023-05-20T14:30:32.890Z,99983.50
2023-05-20T14:33:03.522Z,99980.13
2023-05-20T14:35:34.041Z,99979.16
2023-05-20T14:38:04.446Z,99982.47
2023-05-20T14:40:35.136Z,99977.88
2023-05-20T14:43:05.655Z,99976.47
2023-05-20T14:45:36.011Z,99985.28
2023-05-20T14:48:06.585Z,99974.63
2023-05-20T14:50:37.360Z,99956.69
2023-05-20T14:53:08.104Z,99948.63
2023-05-20T14:55:38.540Z,99934.66
2023-05-20T14:58:09.219Z,99919.03
2023-05-20T15:00:39.721Z,99892.59
2023-05-20T15:03:10.298Z,99888.97
2023-05-20T15:05:40.808Z,99892.47
2023-05-20T15:08:11.303Z,99890.06
2023-05-20T15:10:41.714Z,99903.66
2023-05-20T15:13:12.217Z,99920.31
2023-05-20T15:15:42.884Z,99933.47
2023-05-20T15:18:13.380Z,99939.88
2023-05-20T15:20:44.130Z,99934.69
2023-05-20T15:23:15.069Z,99924.94
2023-05-20T15:25:45.580Z,99932.75
2023-05-20T15:28:16.016Z,99928.66
2023-05-20T15:30:46.391Z,99932.34
2023-05-20T15:33:17.103Z,99926.78
2023-05-20T15:35:47.891Z,99919.06
2023-05-20T15:38:19.065Z,99914.31
2023-05-20T15:40:51.765Z,99899.72
2023-05-20T15:43:40.667Z,99901.38
2023-05-20T15:46:11.132Z,99914.34
2023-05-20T15:48:42.665Z,99918.44
2023-05-20T15:51:13.965Z,99908.94
2023-05-20T15:53:44.873Z,99904.09
2023-05-20T15:56:15.880Z,99894.38
2023-05-20T15:58:46.539Z,99889.53
2023-05-20T16:01:17.228Z,99885.66
2023-05-20T16:03:48.055Z,99883.88
2023-05-20T16:06:18.703Z,99877.75
2023-05-20T16:08:49.131Z,99894.59
2023-05-20T16:11:19.497Z,99888.81
2023-05-20T16:13:49.944Z,99888.75
2023-05-20T16:16:20.644Z,99891.13
2023-05-20T16:18:51.104Z,99888.44
2023-05-20T16:21:22.793Z,99893.31
2023-05-20T16:23:54.352Z,99900.97
2023-05-20T16:26:24.823Z,99916.19
2023-05-20T16:28:55.247Z,99918.47
2023-05-20T16:31:25.679Z,99921.97
2023-05-20T16:34:14.584Z,99932.69
2023-05-20T16:36:46.642Z,99933.78
2023-05-20T16:39:17.978Z,99937.09
2023-05-20T16:41:48.338Z,99941.50
2023-05-20T16:44:18.796Z,99946.91
2023-05-20T16:46:49.810Z,99948.72
2023-05-20T16:49:21.290Z,99950.91
2023-05-20T16:51:53.728Z,99954.91
2023-05-20T16:54:23.886Z,99956.34
2023-05-20T16:56:54.525Z,99939.66
2023-05-20T16:59:26.418Z,99939.47
2023-05-20T17:01:56.607Z,99938.81
2023-05-20T17:04:27.236Z,99926.69
2023-05-20T17:06:58.384Z,99929.28
2023-05-20T17:09:28.694Z,99933.28
2023-05-20T17:11:59.712Z,99913.94
2023-05-20T17:14:30.142Z,99924.88
2023-05-20T17:17:00.907Z,99921.16
2023-05-20T17:19:31.391Z,99919.22
2023-05-20T17:22:01.923Z,99928.34
2023-05-20T17:24:32.726Z,99929.00
2023-05-20T17:27:04.967Z,99927.31
2023-05-20T17:29:35.401Z,99924.97
2023-05-20T17:32:05.989Z,99926.28
2023-05-20T17:34:36.631Z,99925.53
2023-05-20T17:37:07.387Z,99925.63
2023-05-20T17:39:37.823Z,99922.78
2023-05-20T17:42:08.312Z,99926.91
2023-05-20T17:44:38.779Z,99927.34
2023-05-20T17:47:09.388Z,99924.41
2023-05-20T17:49:39.786Z,99926.69
2023-05-20T17:52:10.333Z,99916.00
2023-05-20T17:54:40.934Z,99920.47
2023-05-20T17:57:11.461Z,99917.47
2023-05-20T17:59:43.342Z,99920.72
2023-05-20T18:02:14.356Z,99939.66
2023-05-20T18:04:44.941Z,99934.31
2023-05-20T18:07:15.957Z,99925.00
2023-05-20T18:09:46.394Z,99923.63
2023-05-20T18:12:17.120Z,99916.84
2023-05-20T18:14:47.624Z,99915.19
2023-05-20T18:17:18.257Z,99899.34
2023-05-20T18:19:49.095Z,99909.13
2023-05-20T18:22:19.527Z,99919.25
2023-05-20T18:24:50.114Z,99921.84
2023-05-20T18:27:20.760Z,99905.44
2023-05-20T18:29:51.590Z,99904.50
2023-05-20T18:32:23.779Z,99908.78
2023-05-20T18:34:54.348Z,99911.41
2023-05-20T18:37:43.176Z,99912.31
2023-05-20T18:40:14.342Z,99908.59
2023-05-20T18:42:44.742Z,99913.34
2023-05-20T18:45:15.294Z,99905.03
2023-05-20T18:47:45.801Z,99911.28
2023-05-20T18:50:16.270Z,99913.06
2023-05-20T18:52:46.742Z,99900.66
2023-05-20T18:55:17.335Z,99895.94
2023-05-20T18:57:48.211Z,99898.47
2023-05-20T19:00:19.552Z,99901.97
2023-05-20T19:02:50.077Z,99896.41
2023-05-20T19:05:21.579Z,99892.34
2023-05-20T19:07:52.077Z,99884.09
2023-05-20T19:10:22.909Z,99900.13
2023-05-20T19:12:53.287Z,99894.13
2023-05-20T19:15:23.680Z,99887.72
2023-05-20T19:17:54.683Z,99894.97
2023-05-20T19:20:25.175Z,99897.50
2023-05-20T19:22:55.466Z,99896.25
2023-05-20T19:25:44.296Z,99886.53
2023-05-20T19:28:14.817Z,99896.84
2023-05-20T19:30:45.248Z,99896.06
2023-05-20T19:33:15.706Z,99884.91
2023-05-20T19:35:46.260Z,99897.22
2023-05-20T19:38:17.044Z,99896.78
2023-05-20T19:40:48.601Z,99868.69
2023-05-20T19:43:19.325Z,99865.81
2023-05-20T19:45:49.811Z,99864.75
2023-05-20T19:48:22.077Z,99841.47
2023-05-20T19:50:52.897Z,99837.16
2023-05-20T19:53:23.320Z,99843.16
2023-05-20T19:55:54.046Z,99848.06
2023-05-20T19:58:25.431Z,99844.28
2023-05-20T20:00:56.054Z,99852.34
2023-05-20T20:03:26.641Z,99847.94
2023-05-20T20:05:58.440Z,99844.44
2023-05-20T20:08:28.822Z,99859.84
2023-05-20T20:10:59.341Z,99867.88
2023-05-20T20:13:29.714Z,99868.44
2023-05-20T20:16:00.412Z,99861.56
2023-05-20T20:18:31.062Z,99868.78
2023-05-20T20:21:02.013Z,99866.44
2023-05-20T20:23:32.405Z,99863.09
2023-05-20T20:26:03.262Z,99874.66
2023-05-20T20:28:33.672Z,99876.06
2023-05-20T20:31:04.050Z,99879.28
2023-05-20T20:33:34.822Z,99895.59
2023-05-20T20:36:23.318Z,99897.44
2023-05-20T20:38:53.884Z,99902.97
2023-05-20T20:41:24.573Z,99899.88
2023-05-20T20:43:55.079Z,99896.84
2023-05-20T20:46:25.757Z,99902.25
2023-05-20T20:48:56.461Z,99888.75
2023-05-20T20:51:27.214Z,99886.03
2023-05-20T20:53:57.747Z,99898.09
2023-05-20T20:56:28.352Z,99894.47
2023-05-20T20:58:59.037Z,99883.69
2023-05-20T21:01:31.189Z,99881.41
2023-05-20T21:04:02.582Z,99873.56
2023-05-20T21:06:33.623Z,99872.78
2023-05-20T21:09:04.097Z,99856.91
2023-05-20T21:11:34.689Z,99863.06
2023-05-20T21:14:05.370Z,99849.88
2023-05-20T21:16:35.801Z,99847.44
2023-05-20T21:19:07.584Z,99856.47
2023-05-20T21:21:37.849Z,99860.22
2023-05-20T21:24:08.779Z,99849.34
2023-05-20T21:26:39.243Z,99856.91
2023-05-20T21:29:11.458Z,99847.44
2023-05-20T21:31:41.893Z,99854.09
2023-05-20T21:34:12.296Z,99874.44
2023-05-20T21:36:42.753Z,99877.41
2023-05-20T21:39:13.130Z,99876.25
2023-05-20T21:41:43.554Z,99864.31
2023-05-20T21:44:14.234Z,99860.19
2023-05-20T21:46:44.777Z,99850.34
2023-05-20T21:49:15.267Z,99860.75
2023-05-20T21:51:45.704Z,99862.63
2023-05-20T21:54:16.114Z,99865.13
2023-05-20T21:56:46.952Z,99875.69
2023-05-20T21:59:17.395Z,99886.56
2023-05-20T22:01:47.845Z,99889.47
2023-05-20T22:04:20.391Z,99893.56
2023-05-20T22:06:52.364Z,99899.31
2023-05-20T22:09:22.771Z,99908.59
2023-05-20T22:11:54.198Z,99914.09
2023-05-20T22:14:25.113Z,99915.97
2023-05-20T22:16:55.598Z,99912.09
2023-05-20T22:19:26.211Z,99918.66
2023-05-20T22:21:57.198Z,99927.34
2023-05-20T22:24:27.655Z,99908.88
2023-05-20T22:26:58.228Z,99912.47
2023-05-20T22:29:28.969Z,99922.97
2023-05-20T22:31:59.575Z,99919.47
2023-05-20T22:34:30.394Z,99918.69
2023-05-20T22:37:00.859Z,99926.28
2023-05-20T22:39:31.418Z,99931.22
2023-05-20T22:42:02.115Z,99940.44
2023-05-20T22:44:32.721Z,99947.06
2023-05-20T22:47:03.106Z,99944.19
2023-05-20T22:49:34.225Z,99945.44
2023-05-20T22:52:04.544Z,99952.41
2023-05-20T22:54:35.217Z,99948.97
2023-05-20T22:57:07.111Z,99947.50
2023-05-20T22:59:38.112Z,99948.75
2023-05-20T23:02:09.444Z,99939.88
2023-05-20T23:04:40.354Z,99926.09
2023-05-20T23:07:10.823Z,99933.44
2023-05-20T23:09:41.357Z,99932.06
2023-05-20T23:12:11.960Z,99934.28
2023-05-20T23:14:42.450Z,99922.34
2023-05-20T23:17:13.067Z,99946.13
2023-05-20T23:19:44.068Z,99937.63
2023-05-20T23:22:15.648Z,99936.28
2023-05-20T23:24:46.100Z,99932.72
2023-05-20T23:27:17.274Z,99929.06
2023-05-20T23:29:47.932Z,99934.56
2023-05-20T23:32:18.385Z,99937.03
2023-05-20T23:34:48.880Z,99931.34
2023-05-20T23:37:19.436Z,99935.00
2023-05-20T23:39:50.408Z,99931.06
2023-05-20T23:42:20.843Z,99943.88
2023-05-20T23:44:51.224Z,99942.97
2023-05-20T23:47:21.557Z,99938.75
2023-05-20T23:49:52.182Z,99924.56
2023-05-20T23:52:22.548Z,99923.84
2023-05-20T23:54:53.801Z,99913.78
2023-05-20T23:57:24.538Z,99919.31
2023-05-20T23:59:55.021Z,99918.69
